Ladd AAF Airfield
PAFB : rendu visible

Aérodrome :











RETROUVEZ-NOUS SUR...

 
LOGIN :

S'inscrire | Disclaimer

   EN    FR    IT 

 









Légende :    VFR   VFR Marginal   IFR   IFR Intensif   IFR Très Intensif
Visi : 
Plafond : 
>= 8 km
>= 3000ft
5 à 8 km
1000 à 3000 ft
1500m à 5 km
500 à 1000 ft
800 à 1500m
200 à 500 ft
< 800m
< 200 ft
Symboles :   Orages  Brouillard  Fortes neiges  Fortes précipitations  Vent > 20 kt






- Altitude de l'aérodrome : 454 ft
- Code IATA : FBK


PAFB - Ladd AAF

DERNIER METAR :
  • 291558Z 00000KT 6SM HZ FEW015 M32/M35 A2912 RMK AO2A SLP884 T13221352 $

METARs EXPIRÉS :
  • 291458Z AUTO 00000KT 4SM HZ M M33/M36 A2916 RMK AO2 SLP898 T13261357 57044 $
  • 291358Z AUTO 00000KT 9SM CLR M33/M36 A2920 RMK AO2 SLP911 T13281360 $

TAF TAF PAFB
Valide du 29 à 08h jusqu'au 30 à 14h UTC


290800Z 2908/3014 VRB04KT 9999 FEW110 QNH2946INS
BECMG 2914/2915 VRB03KT 9999 SCT060 BKN100 QNH2907INS
BECMG 2917/2919 VRB04KT 4800 -SN BKN040 OVC060 620403 QNH2901INS TXM26/3006Z TNM38/2908Z LAST NO AMDS AFT 2908 NEXT 2916



MET'MAP, la Météo Aéronautique d'un coup d'oeil ! - Copyright ORBIFLY Décembre 2007 - Disclaimer

ORBIFLY MET'MAP TEAM :

Programmation & Développement : Alexandra Zaïnal
Sur une idée originale de : Baudouin d'Aumeries
Assistance à la programmation : Marc-Olivier Méhu
Soutien technique & logistique : Manuel Goepfert

Contact : metmap@orbifly.com




SOURCES & CREDITS :

   NOAA       Earth
Advisory